Time;durP1;ratioP1;P1;durP2;ratioP2;P2;SDS_P1;SDS_P2;PMS_P1;PMS_P2;Temp;Humidity;BMP_temperature;BMP_pressure;BME280_temperature;BME280_humidity;BME280_pressure;Samples;Min_cycle;Max_cycle;Signal;HPM_P1;HPM_P2
2022/09/05 00:01:54;;;;;;;0.03;0.03;;;17.90;99.90;;;;;;5072062;28;20029;-78
2022/09/05 00:04:57;;;;;;;0.10;0.10;;;18.00;99.90;;;;;;5072081;28;20047;-78
2022/09/05 00:07:45;;;;;;;0.10;0.10;;;17.90;99.90;;;;;;5071872;28;20032;-77
2022/09/05 00:10:40;;;;;;;0.10;0.10;;;17.70;99.90;;;;;;5054080;28;20100;-77
2022/09/05 00:13:18;;;;;;;0.30;0.30;;;17.60;99.90;;;;;;5071854;28;20017;-77
2022/09/05 00:16:16;;;;;;;0.10;0.10;;;17.60;99.90;;;;;;5071853;28;20472;-78
2022/09/05 00:19:14;;;;;;;0.20;0.20;;;17.60;99.90;;;;;;5054044;28;20037;-78
2022/09/05 00:22:09;;;;;;;0.10;0.10;;;17.40;99.90;;;;;;5053854;28;20069;-78
2022/09/05 00:25:29;;;;;;;0.10;0.10;;;17.30;99.90;;;;;;5052968;28;20075;-77
2022/09/05 00:27:54;;;;;;;0.10;0.10;;;17.40;99.90;;;;;;4954720;28;20029;-77
2022/09/05 00:30:20;;;;;;;0.10;0.10;;;17.30;99.90;;;;;;5033482;28;20033;-78
2022/09/05 00:33:15;;;;;;;0.40;0.40;;;17.30;99.90;;;;;;5071751;28;20029;-77
2022/09/05 00:36:16;;;;;;;0.20;0.20;;;16.90;99.90;;;;;;5053718;28;20024;-78
2022/09/05 00:38:55;;;;;;;0.60;0.60;;;16.90;99.90;;;;;;5071742;28;20035;-78
2022/09/05 00:41:21;;;;;;;0.55;0.32;;;16.80;99.90;;;;;;5071661;28;20526;-78
2022/09/05 00:43:49;;;;;;;0.10;0.10;;;16.80;99.90;;;;;;5071603;28;20024;-78
2022/09/05 00:46:18;;;;;;;0.10;0.10;;;16.70;99.90;;;;;;5053629;28;20033;-78
2022/09/05 00:49:02;;;;;;;0.00;0.00;;;16.80;99.90;;;;;;5053824;28;20379;-78
2022/09/05 00:51:56;;;;;;;0.10;0.10;;;16.90;99.90;;;;;;5053638;28;20099;-78
2022/09/05 00:54:22;;;;;;;0.08;0.08;;;17.10;99.90;;;;;;5036985;28;20111;-78
2022/09/05 00:56:53;;;;;;;0.10;0.10;;;17.10;99.90;;;;;;5071301;28;20557;-77
2022/09/05 00:59:37;;;;;;;0.10;0.10;;;17.00;99.90;;;;;;5071515;28;20391;-76
2022/09/05 01:02:27;;;;;;;0.13;0.13;;;17.10;99.90;;;;;;5053428;28;20028;-76
2022/09/05 01:05:02;;;;;;;0.32;0.32;;;17.10;99.90;;;;;;5071406;28;20392;-76
2022/09/05 01:07:53;;;;;;;0.10;0.10;;;17.10;99.90;;;;;;5053531;28;20025;-77
2022/09/05 01:10:57;;;;;;;1.40;0.43;;;17.10;99.90;;;;;;5071510;28;20082;-76
2022/09/05 01:13:48;;;;;;;0.10;0.10;;;17.10;99.90;;;;;;5071383;28;20370;-75
2022/09/05 01:16:22;;;;;;;0.10;0.10;;;17.10;99.90;;;;;;5071179;28;20020;-78
2022/09/05 01:19:37;;;;;;;0.10;0.10;;;17.20;99.90;;;;;;5053465;28;20047;-77
2022/09/05 01:22:40;;;;;;;0.13;0.13;;;17.20;99.90;;;;;;4954043;28;20101;-76
2022/09/05 01:25:27;;;;;;;0.13;0.13;;;17.00;99.90;;;;;;5071165;28;20450;-76
2022/09/05 01:27:57;;;;;;;0.40;0.40;;;16.90;99.90;;;;;;5071500;28;20088;-77
2022/09/05 01:30:57;;;;;;;0.10;0.10;;;16.60;99.90;;;;;;5071298;28;20021;-77
2022/09/05 01:33:58;;;;;;;0.10;0.10;;;16.60;99.90;;;;;;5053166;28;20028;-78
2022/09/05 01:36:42;;;;;;;0.47;0.47;;;16.50;99.90;;;;;;5002672;28;20147;-77
2022/09/05 01:39:19;;;;;;;0.10;0.10;;;16.30;99.90;;;;;;5056728;28;20070;-76
2022/09/05 01:42:03;;;;;;;0.43;0.43;;;16.30;99.90;;;;;;5074592;28;20067;-77
2022/09/05 01:45:10;;;;;;;0.20;0.20;;;16.40;99.90;;;;;;5056942;28;20480;-77
2022/09/05 01:47:56;;;;;;;0.10;0.10;;;16.40;99.90;;;;;;5074541;28;20031;-77
2022/09/05 01:50:52;;;;;;;0.20;0.20;;;16.50;99.90;;;;;;5056727;28;20477;-77
2022/09/05 01:53:39;;;;;;;0.10;0.10;;;16.30;99.90;;;;;;5074302;28;20024;-76
2022/09/05 01:56:28;;;;;;;0.10;0.10;;;16.60;99.90;;;;;;5056417;28;20017;-76
2022/09/05 01:59:19;;;;;;;0.10;0.10;;;16.80;99.90;;;;;;5039971;28;20549;-75
2022/09/05 02:01:48;;;;;;;0.10;0.10;;;16.90;99.90;;;;;;5056259;28;20021;-77
2022/09/05 02:04:32;;;;;;;0.10;0.10;;;17.10;99.90;;;;;;5039595;28;20028;-76
2022/09/05 02:07:04;;;;;;;0.10;0.10;;;17.30;99.90;;;;;;5074262;28;20025;-76
2022/09/05 02:09:39;;;;;;;0.85;0.85;;;17.30;99.90;;;;;;5074222;28;20108;-77
2022/09/05 02:12:14;;;;;;;0.30;0.30;;;17.30;99.90;;;;;;5039522;28;20112;-76
2022/09/05 02:14:44;;;;;;;0.10;0.10;;;16.90;99.90;;;;;;5056042;28;20090;-76
2022/09/05 02:17:25;;;;;;;0.10;0.10;;;16.70;99.90;;;;;;5039415;28;20098;-77
2022/09/05 02:20:17;;;;;;;0.10;0.10;;;16.60;99.90;;;;;;5055953;28;20466;-77
2022/09/05 02:22:45;;;;;;;;;;;16.50;99.90;;;;;;5051698;28;20090;-76
2022/09/05 02:25:26;;;;;;;0.10;0.10;;;16.60;99.90;;;;;;5073901;28;20328;-77
2022/09/05 02:28:10;;;;;;;0.07;0.07;;;16.60;99.90;;;;;;5056007;28;20020;-77
2022/09/05 02:30:41;;;;;;;0.10;0.10;;;16.70;99.90;;;;;;5055975;28;20266;-77
2022/09/05 02:33:21;;;;;;;0.73;0.73;;;16.80;99.90;;;;;;5055915;28;20024;-75
2022/09/05 02:36:07;;;;;;;0.00;0.00;;;16.80;99.90;;;;;;5055578;28;20032;-76
2022/09/05 02:38:57;;;;;;;0.20;0.20;;;16.90;99.90;;;;;;5039317;28;20040;-77
2022/09/05 02:41:31;;;;;;;0.30;0.30;;;17.00;99.90;;;;;;5055673;28;20028;-77
2022/09/05 02:43:59;;;;;;;0.10;0.10;;;16.80;99.90;;;;;;5055686;28;20392;-77
2022/09/05 02:47:06;;;;;;;0.10;0.10;;;16.70;99.90;;;;;;5072816;28;20124;-76
2022/09/05 02:49:40;;;;;;;0.00;0.00;;;16.70;99.90;;;;;;5073361;28;20030;-77
2022/09/05 02:52:09;;;;;;;0.10;0.10;;;16.80;99.90;;;;;;5055292;28;20013;-77
2022/09/05 02:54:42;;;;;;;0.10;0.10;;;16.70;99.90;;;;;;5073222;28;20029;-76
2022/09/05 02:57:38;;;;;;;0.10;0.10;;;16.50;99.90;;;;;;5055217;28;20480;-76
2022/09/05 03:00:22;;;;;;;0.10;0.10;;;16.40;99.90;;;;;;5055259;28;20612;-77
2022/09/05 03:03:18;;;;;;;0.20;0.20;;;16.40;99.90;;;;;;5073341;28;20078;-77
2022/09/05 03:06:06;;;;;;;0.68;0.30;;;16.40;99.90;;;;;;5072928;28;20028;-76
2022/09/05 03:08:57;;;;;;;0.10;0.10;;;16.40;99.90;;;;;;5073050;28;20167;-77
2022/09/05 03:11:47;;;;;;;0.10;0.10;;;16.40;99.90;;;;;;5072979;28;20052;-77
2022/09/05 03:14:19;;;;;;;0.10;0.10;;;16.40;99.90;;;;;;5055101;28;20031;-76
2022/09/05 03:17:03;;;;;;;0.10;0.10;;;16.40;99.90;;;;;;5072628;28;20054;-77
2022/09/05 03:19:51;;;;;;;0.30;0.30;;;16.50;99.90;;;;;;5054850;28;20404;-77
2022/09/05 03:22:55;;;;;;;0.10;0.10;;;16.40;99.90;;;;;;5072583;28;20550;-76
2022/09/05 03:25:30;;;;;;;0.10;0.10;;;16.40;99.90;;;;;;5072477;28;20373;-77
2022/09/05 03:28:14;;;;;;;0.10;0.10;;;16.20;99.90;;;;;;5038079;28;20021;-76
2022/09/05 03:30:58;;;;;;;0.10;0.10;;;16.20;99.90;;;;;;5054622;28;20086;-77
2022/09/05 03:33:52;;;;;;;0.10;0.10;;;16.10;99.90;;;;;;5072627;28;20020;-76
2022/09/05 03:36:45;;;;;;;0.10;0.10;;;16.00;99.90;;;;;;5072507;28;20444;-77
2022/09/05 03:39:17;;;;;;;0.10;0.10;;;16.20;99.90;;;;;;5072330;28;20032;-78
2022/09/05 03:42:06;;;;;;;0.15;0.15;;;16.30;99.90;;;;;;5054398;28;20496;-76
2022/09/05 03:44:57;;;;;;;0.20;0.20;;;16.20;99.90;;;;;;5041667;28;20074;-77
2022/09/05 03:47:32;;;;;;;0.10;0.10;;;16.10;99.90;;;;;;5054171;28;20020;-76
2022/09/05 03:50:29;;;;;;;0.10;0.10;;;16.10;99.90;;;;;;5054858;28;20029;-77
2022/09/05 03:53:23;;;;;;;0.10;0.10;;;16.20;99.90;;;;;;5054090;28;20056;-76
2022/09/05 03:56:41;;;;;;;0.43;0.43;;;16.30;99.90;;;;;;5053863;28;20024;-76
2022/09/05 03:59:24;;;;;;;0.10;0.10;;;16.30;99.90;;;;;;4970574;28;20034;-76
2022/09/05 04:01:58;;;;;;;0.05;0.05;;;16.50;99.90;;;;;;4939005;28;20065;-77
2022/09/05 04:04:43;;;;;;;0.10;0.10;;;16.60;99.90;;;;;;5012126;28;20415;-76
2022/09/05 04:07:21;;;;;;;0.20;0.20;;;16.60;99.90;;;;;;5054027;28;20521;-77
2022/09/05 04:09:58;;;;;;;0.05;0.05;;;16.50;99.90;;;;;;5054176;28;20470;-76
2022/09/05 04:12:31;;;;;;;0.10;0.10;;;16.40;99.90;;;;;;5054026;28;20488;-77
2022/09/05 04:15:00;;;;;;;0.10;0.10;;;16.30;99.90;;;;;;5072111;28;20480;-77
2022/09/05 04:17:36;;;;;;;0.10;0.10;;;16.20;99.90;;;;;;5054153;28;20021;-77
2022/09/05 04:20:35;;;;;;;0.15;0.15;;;16.10;99.90;;;;;;5071971;28;20032;-78
2022/09/05 04:23:31;;;;;;;0.13;0.13;;;15.90;99.90;;;;;;5053704;28;20025;-77
2022/09/05 04:26:03;;;;;;;0.05;0.05;;;15.60;99.90;;;;;;5037185;28;20028;-77
2022/09/05 04:29:02;;;;;;;0.10;0.10;;;15.60;99.90;;;;;;5037275;28;20021;-77
2022/09/05 04:31:57;;;;;;;0.45;0.45;;;15.60;99.90;;;;;;5037135;28;20514;-77
2022/09/05 04:34:50;;;;;;;0.10;0.10;;;15.70;99.90;;;;;;5053830;28;20364;-77
2022/09/05 04:37:38;;;;;;;0.10;0.10;;;15.70;99.90;;;;;;5071677;28;20020;-77
2022/09/05 04:40:42;;;;;;;0.20;0.20;;;15.60;99.90;;;;;;5053711;28;20025;-77
2022/09/05 04:43:24;;;;;;;0.10;0.10;;;15.40;99.90;;;;;;5037017;28;20035;-77
2022/09/05 04:46:03;;;;;;;0.63;0.63;;;15.40;99.90;;;;;;5053636;28;20039;-77
2022/09/05 04:48:36;;;;;;;0.10;0.10;;;15.40;99.90;;;;;;5053737;28;20399;-78
2022/09/05 04:51:08;;;;;;;0.13;0.13;;;15.40;99.90;;;;;;5053655;28;20077;-77
2022/09/05 04:54:22;;;;;;;0.10;0.10;;;15.40;99.90;;;;;;5071400;28;20078;-77
2022/09/05 04:56:53;;;;;;;0.10;0.10;;;15.40;99.90;;;;;;5045146;28;20049;-77
2022/09/05 04:59:30;;;;;;;0.20;0.20;;;15.30;99.90;;;;;;5053577;28;20064;-77
2022/09/05 05:02:01;;;;;;;0.10;0.10;;;15.40;99.90;;;;;;5071386;28;20401;-77
2022/09/05 05:04:27;;;;;;;0.20;0.20;;;15.50;99.90;;;;;;5053633;28;20032;-76
2022/09/05 05:07:05;;;;;;;0.10;0.10;;;15.50;99.90;;;;;;5036707;28;20507;-77
2022/09/05 05:09:48;;;;;;;0.10;0.10;;;15.40;99.90;;;;;;5054261;28;20095;-78
2022/09/05 05:12:26;;;;;;;0.55;0.45;;;15.40;99.90;;;;;;5075050;28;20021;-77
2022/09/05 05:14:59;;;;;;;0.20;0.20;;;15.20;99.90;;;;;;5075035;28;20025;-77
2022/09/05 05:17:25;;;;;;;0.20;0.20;;;15.30;99.90;;;;;;5057186;28;20025;-77
2022/09/05 05:20:13;;;;;;;0.10;0.10;;;15.30;99.90;;;;;;5075016;28;20444;-77
2022/09/05 05:22:51;;;;;;;0.10;0.10;;;15.50;99.90;;;;;;5039520;28;20033;-77
2022/09/05 05:25:17;;;;;;;0.50;0.50;;;15.80;99.90;;;;;;5074726;28;20024;-77
2022/09/05 05:28:06;;;;;;;0.10;0.10;;;15.90;99.90;;;;;;5057062;28;20511;-77
2022/09/05 05:30:32;;;;;;;0.10;0.10;;;16.20;99.90;;;;;;5047332;28;20042;-77
2022/09/05 05:33:09;;;;;;;0.10;0.10;;;16.30;99.90;;;;;;5043656;28;20020;-76
2022/09/05 05:35:35;;;;;;;0.35;0.35;;;16.50;99.90;;;;;;5056985;28;20021;-77
2022/09/05 05:38:15;;;;;;;0.10;0.10;;;16.70;99.90;;;;;;5074887;28;20500;-77
2022/09/05 05:41:14;;;;;;;1.85;1.55;;;16.50;99.90;;;;;;5074767;28;20017;-77
2022/09/05 05:43:42;;;;;;;0.10;0.10;;;16.60;99.90;;;;;;5061068;28;20041;-78
2022/09/05 05:46:14;;;;;;;0.15;0.15;;;16.70;99.90;;;;;;5055274;28;20105;-78
2022/09/05 05:48:40;;;;;;;;;;;16.70;99.90;;;;;;5073103;28;20013;-78
2022/09/05 05:51:18;;;;;;;0.10;0.10;;;16.80;99.90;;;;;;5055382;28;19911;-76
2022/09/05 05:54:04;;;;;;;0.45;0.45;;;17.00;99.90;;;;;;5055905;28;20440;-77
2022/09/05 05:56:45;;;;;;;0.10;0.10;;;17.10;99.90;;;;;;5056326;28;20143;-77
2022/09/05 05:59:42;;;;;;;0.13;0.13;;;17.20;99.90;;;;;;5056552;28;20052;-76
2022/09/05 06:02:29;;;;;;;0.10;0.10;;;17.30;99.90;;;;;;5048710;28;20476;-77
2022/09/05 06:05:19;;;;;;;0.17;0.17;;;17.30;99.90;;;;;;5071836;28;20498;-78
2022/09/05 06:08:15;;;;;;;0.10;0.10;;;17.30;99.90;;;;;;5054283;28;20021;-77
2022/09/05 06:11:13;;;;;;;0.28;0.28;;;17.20;99.90;;;;;;5049140;28;20495;-78
2022/09/05 06:13:57;;;;;;;0.10;0.10;;;17.10;99.90;;;;;;5040253;28;20071;-77
2022/09/05 06:16:40;;;;;;;0.10;0.10;;;17.30;99.90;;;;;;5074179;28;20036;-78
2022/09/05 06:19:21;;;;;;;0.40;0.40;;;17.40;99.90;;;;;;5062434;28;20028;-78
2022/09/05 06:21:56;;;;;;;0.10;0.10;;;17.60;99.90;;;;;;5039211;28;20029;-76
2022/09/05 06:25:03;;;;;;;0.10;0.10;;;17.60;99.90;;;;;;5036399;28;20612;-77
2022/09/05 06:27:51;;;;;;;0.10;0.10;;;17.80;99.90;;;;;;5036074;28;20060;-77
2022/09/05 06:30:20;;;;;;;0.10;0.10;;;18.00;99.90;;;;;;5053954;28;20025;-78
2022/09/05 06:33:05;;;;;;;0.10;0.10;;;18.20;99.90;;;;;;5053875;28;20389;-78
2022/09/05 06:35:53;;;;;;;0.10;0.10;;;18.30;99.90;;;;;;5053424;28;20112;-77
2022/09/05 06:38:25;;;;;;;0.10;0.10;;;18.30;99.90;;;;;;5035896;28;20441;-77
2022/09/05 06:40:51;;;;;;;0.10;0.10;;;18.50;99.90;;;;;;5019285;28;20032;-76
2022/09/05 06:43:26;;;;;;;0.10;0.10;;;18.60;99.90;;;;;;5030607;28;20017;-76
2022/09/05 06:46:09;;;;;;;0.10;0.10;;;18.60;99.90;;;;;;5015146;28;20030;-75
2022/09/05 06:49:16;;;;;;;0.10;0.10;;;18.60;99.90;;;;;;5015986;28;20037;-77
2022/09/05 06:51:59;;;;;;;0.03;0.03;;;18.70;99.90;;;;;;5035041;28;20104;-75
2022/09/05 06:54:57;;;;;;;0.20;0.20;;;18.70;99.90;;;;;;5023914;28;20075;-76
2022/09/05 06:57:34;;;;;;;0.00;0.00;;;18.90;99.90;;;;;;4999865;28;20040;-76
2022/09/05 07:00:52;;;;;;;0.10;0.10;;;19.00;99.90;;;;;;5023936;28;20060;-76
2022/09/05 07:03:51;;;;;;;0.10;0.10;;;19.10;99.90;;;;;;4990783;28;20037;-77
2022/09/05 07:06:26;;;;;;;0.08;0.08;;;19.10;99.90;;;;;;5007304;28;20087;-78
2022/09/05 07:09:35;;;;;;;0.10;0.10;;;19.10;99.90;;;;;;5023800;28;20029;-76
2022/09/05 07:12:19;;;;;;;0.10;0.10;;;19.20;99.90;;;;;;4998907;28;20044;-77
2022/09/05 07:15:07;;;;;;;0.00;0.00;;;19.40;99.90;;;;;;5013400;28;20499;-77
2022/09/05 07:17:42;;;;;;;0.00;0.00;;;19.40;99.90;;;;;;5013222;28;20033;-77
2022/09/05 07:20:33;;;;;;;0.28;0.28;;;19.50;99.90;;;;;;5021002;28;20033;-77
2022/09/05 07:23:35;;;;;;;0.10;0.10;;;19.50;99.90;;;;;;5029733;28;20035;-77
2022/09/05 07:26:02;;;;;;;0.10;0.10;;;19.50;99.90;;;;;;4997207;28;20528;-77
2022/09/05 07:28:29;;;;;;;0.10;0.10;;;19.60;99.90;;;;;;5031041;28;20470;-78
2022/09/05 07:31:29;;;;;;;0.10;0.10;;;19.70;99.90;;;;;;5001627;28;20037;-78
2022/09/05 07:34:17;;;;;;;0.10;0.10;;;19.70;99.90;;;;;;4987873;28;20041;-79
2022/09/05 07:36:46;;;;;;;0.10;0.10;;;19.80;99.90;;;;;;5028823;28;20037;-76
2022/09/05 07:39:17;;;;;;;0.10;0.10;;;19.90;99.90;;;;;;5002418;28;20077;-76
2022/09/05 07:41:52;;;;;;;0.10;0.10;;;20.10;99.90;;;;;;5001247;28;20511;-77
2022/09/05 07:44:35;;;;;;;0.10;0.10;;;20.20;99.90;;;;;;5034454;28;20291;-77
2022/09/05 07:47:08;;;;;;;0.10;0.10;;;20.20;99.90;;;;;;5023401;28;20036;-77
2022/09/05 07:49:37;;;;;;;0.08;0.08;;;20.40;99.90;;;;;;5031233;28;20029;-77
2022/09/05 07:52:17;;;;;;;0.10;0.10;;;20.60;99.90;;;;;;5017021;28;20029;-77
2022/09/05 07:54:47;;;;;;;0.10;0.10;;;20.80;99.90;;;;;;5037945;28;20048;-79
2022/09/05 07:57:27;;;;;;;0.20;0.20;;;20.80;99.90;;;;;;5035175;28;20495;-77
2022/09/05 08:00:20;;;;;;;0.08;0.08;;;20.80;99.90;;;;;;5035926;28;20621;-77
2022/09/05 08:02:46;;;;;;;0.32;0.10;;;20.80;99.90;;;;;;5006853;28;20021;-78
2022/09/05 08:05:20;;;;;;;0.00;0.00;;;21.00;99.90;;;;;;5022402;28;20083;-78
2022/09/05 08:07:54;;;;;;;0.00;0.00;;;21.40;99.90;;;;;;5006678;28;20102;-79
2022/09/05 08:10:28;;;;;;;0.30;0.30;;;21.50;99.90;;;;;;5006529;28;20029;-78
2022/09/05 08:13:03;;;;;;;0.00;0.00;;;21.40;99.90;;;;;;5036582;28;20061;-77
2022/09/05 08:15:29;;;;;;;0.00;0.00;;;21.60;99.90;;;;;;5033884;28;20036;-81
2022/09/05 08:18:10;;;;;;;0.10;0.10;;;21.80;99.90;;;;;;5000383;28;20035;-78
2022/09/05 08:21:02;;;;;;;0.00;0.00;;;22.00;99.90;;;;;;5021881;28;20060;-78
2022/09/05 08:23:57;;;;;;;0.05;0.05;;;22.20;99.90;;;;;;5040730;28;20494;-78
2022/09/05 08:26:51;;;;;;;0.00;0.00;;;22.20;99.90;;;;;;5035575;28;20039;-77
2022/09/05 08:29:36;;;;;;;0.00;0.00;;;22.50;99.90;;;;;;5020436;28;20125;-79
2022/09/05 08:32:12;;;;;;;0.05;0.05;;;22.60;99.90;;;;;;5034589;28;20040;-78
2022/09/05 08:34:45;;;;;;;0.03;0.03;;;22.50;99.90;;;;;;4995254;28;20034;-76
2022/09/05 08:37:15;;;;;;;0.00;0.00;;;22.80;99.90;;;;;;5027942;28;20112;-78
2022/09/05 08:39:43;;;;;;;0.00;0.00;;;23.10;99.90;;;;;;5012578;28;20044;-78
2022/09/05 08:42:38;;;;;;;0.00;0.00;;;23.40;99.90;;;;;;5018222;28;20509;-78
2022/09/05 08:45:25;;;;;;;0.00;0.00;;;23.60;99.90;;;;;;5002405;28;20527;-78
2022/09/05 08:48:06;;;;;;;0.55;0.55;;;24.00;99.90;;;;;;5017100;28;20236;-78
2022/09/05 08:50:54;;;;;;;0.00;0.00;;;24.00;99.90;;;;;;5023175;28;20038;-78
2022/09/05 08:53:36;;;;;;;0.00;0.00;;;23.90;99.90;;;;;;5007435;28;20142;-77
2022/09/05 08:56:20;;;;;;;0.00;0.00;;;24.10;99.90;;;;;;5000512;28;20026;-77
2022/09/05 08:59:25;;;;;;;0.00;0.00;;;24.30;99.90;;;;;;5038407;28;20102;-78
2022/09/05 09:02:16;;;;;;;0.20;0.20;;;24.60;99.90;;;;;;5026810;28;20032;-78
2022/09/05 09:05:05;;;;;;;0.00;0.00;;;24.80;99.90;;;;;;5040590;28;20036;-77
2022/09/05 09:07:39;;;;;;;0.00;0.00;;;24.90;99.90;;;;;;5042910;28;20867;-77
2022/09/05 09:10:30;;;;;;;0.00;0.00;;;25.30;99.90;;;;;;5016495;28;20033;-77
2022/09/05 09:13:08;;;;;;;0.10;0.10;;;25.40;97.10;;;;;;5021135;28;20552;-77
2022/09/05 09:15:43;;;;;;;0.00;0.00;;;25.40;96.20;;;;;;5037569;28;20078;-76
2022/09/05 09:18:15;;;;;;;0.00;0.00;;;25.90;95.30;;;;;;5008817;28;20531;-77
2022/09/05 09:20:58;;;;;;;0.00;0.00;;;26.30;94.90;;;;;;5019197;28;20090;-77
2022/09/05 09:23:51;;;;;;;0.00;0.00;;;26.30;93.40;;;;;;5026021;28;20017;-79
2022/09/05 09:26:28;;;;;;;0.10;0.10;;;26.50;92.40;;;;;;5025191;28;20029;-79
2022/09/05 09:29:11;;;;;;;0.00;0.00;;;26.60;90.80;;;;;;5042076;28;20029;-79
2022/09/05 09:31:55;;;;;;;0.00;0.00;;;27.10;87.20;;;;;;5028723;28;20036;-76
2022/09/05 09:34:28;;;;;;;0.00;0.00;;;27.40;81.70;;;;;;5025259;28;20511;-77
2022/09/05 09:37:24;;;;;;;0.00;0.00;;;27.30;81.50;;;;;;5034086;28;20156;-79
2022/09/05 09:40:27;;;;;;;0.00;0.00;;;27.10;79.00;;;;;;5036333;28;20247;-79
2022/09/05 09:43:18;;;;;;;0.00;0.00;;;26.90;77.60;;;;;;5038738;28;20033;-78
2022/09/05 09:45:59;;;;;;;0.00;0.00;;;26.60;78.70;;;;;;5040967;28;20036;-78
2022/09/05 09:48:50;;;;;;;0.05;0.05;;;26.30;79.30;;;;;;5042676;28;20456;-80
2022/09/05 09:51:25;;;;;;;0.00;0.00;;;26.40;81.50;;;;;;5003027;28;20564;-78
2022/09/05 09:54:15;;;;;;;0.00;0.00;;;26.40;83.20;;;;;;5025850;28;20287;-80
2022/09/05 09:56:53;;;;;;;0.20;0.20;;;26.10;82.60;;;;;;5025647;28;20480;-77
2022/09/05 09:59:23;;;;;;;1.35;1.27;;;26.10;84.50;;;;;;5025740;28;20375;-78
2022/09/05 10:02:32;;;;;;;0.28;0.28;;;26.50;85.30;;;;;;5025000;28;20033;-78
2022/09/05 10:05:31;;;;;;;0.00;0.00;;;26.90;80.00;;;;;;5011568;28;20052;-79
2022/09/05 10:08:34;;;;;;;0.10;0.10;;;27.00;78.40;;;;;;5038061;28;20029;-79
2022/09/05 10:11:10;;;;;;;0.00;0.00;;;27.50;75.40;;;;;;5025138;28;20036;-80
2022/09/05 10:14:07;;;;;;;0.05;0.05;;;28.10;72.00;;;;;;5036570;28;20115;-77
2022/09/05 10:17:00;;;;;;;0.00;0.00;;;28.70;70.00;;;;;;5016675;28;20121;-81
2022/09/05 10:19:49;;;;;;;0.00;0.00;;;29.20;68.70;;;;;;5042852;28;20039;-80
2022/09/05 10:22:24;;;;;;;0.00;0.00;;;29.30;67.70;;;;;;5031472;28;20032;-79
2022/09/05 10:24:50;;;;;;;0.00;0.00;;;29.50;67.50;;;;;;5040179;28;20028;-78
2022/09/05 10:27:53;;;;;;;0.10;0.10;;;29.50;67.00;;;;;;5009050;28;20032;-79
2022/09/05 10:30:22;;;;;;;0.15;0.15;;;29.90;64.20;;;;;;4978995;28;20033;-79
2022/09/05 10:33:17;;;;;;;0.00;0.00;;;29.90;64.00;;;;;;5018296;28;20483;-77
2022/09/05 10:35:49;;;;;;;0.55;0.55;;;29.80;64.00;;;;;;5020905;28;20131;-79
2022/09/05 10:38:25;;;;;;;0.00;0.00;;;29.30;68.90;;;;;;5023071;28;20037;-80
2022/09/05 10:40:51;;;;;;;0.00;0.00;;;29.60;70.50;;;;;;5035210;28;20033;-81
2022/09/05 10:43:29;;;;;;;0.00;0.00;;;29.90;68.20;;;;;;5040053;28;20021;-79
2022/09/05 10:45:55;;;;;;;0.10;0.10;;;29.90;66.40;;;;;;5006811;28;20045;-78
2022/09/05 10:48:27;;;;;;;0.00;0.00;;;29.70;67.90;;;;;;5023910;28;20029;-79
2022/09/05 10:51:16;;;;;;;0.00;0.00;;;30.00;68.20;;;;;;5035894;28;20132;-80
2022/09/05 10:54:06;;;;;;;0.15;0.15;;;30.20;67.30;;;;;;5000031;28;20036;-79
2022/09/05 10:56:48;;;;;;;0.00;0.00;;;29.70;68.20;;;;;;5013636;28;20033;-79
2022/09/05 10:59:42;;;;;;;0.00;0.00;;;30.30;67.70;;;;;;5036310;28;20116;-81
2022/09/05 11:02:21;;;;;;;0.20;0.20;;;30.90;66.00;;;;;;5028752;28;20043;-78
2022/09/05 11:05:09;;;;;;;0.65;0.57;;;30.90;64.60;;;;;;5014552;28;20021;-78
2022/09/05 11:07:52;;;;;;;0.10;0.10;;;30.90;64.50;;;;;;5036889;28;20037;-78
2022/09/05 11:11:02;;;;;;;0.00;0.00;;;31.00;64.60;;;;;;5024165;28;20032;-78
2022/09/05 11:13:51;;;;;;;0.00;0.00;;;31.40;62.30;;;;;;5038030;28;20029;-79
2022/09/05 11:17:02;;;;;;;0.22;0.22;;;31.40;62.30;;;;;;5037251;28;20182;-79
2022/09/05 11:19:39;;;;;;;0.00;0.00;;;31.60;61.20;;;;;;5032307;28;20039;-80
2022/09/05 11:22:06;;;;;;;0.60;0.45;;;31.60;62.30;;;;;;5014701;28;20401;-78
2022/09/05 11:24:55;;;;;;;0.20;0.20;;;31.40;60.60;;;;;;5014644;28;20568;-78
2022/09/05 11:27:35;;;;;;;0.17;0.17;;;31.50;61.60;;;;;;5023446;28;20444;-79
2022/09/05 11:30:30;;;;;;;1.63;0.30;;;31.30;62.30;;;;;;5023803;28;20108;-77
2022/09/05 11:33:14;;;;;;;0.00;0.00;;;31.30;61.00;;;;;;5012350;28;20445;-77
2022/09/05 11:35:43;;;;;;;0.47;0.40;;;31.20;61.60;;;;;;5030642;28;20072;-80
2022/09/05 11:38:09;;;;;;;0.93;0.08;;;30.60;61.60;;;;;;5021997;28;20580;-78
2022/09/05 11:41:02;;;;;;;0.00;0.00;;;30.80;62.60;;;;;;5014379;28;20053;-79
2022/09/05 11:44:10;;;;;;;0.20;0.20;;;31.00;60.10;;;;;;5006452;28;20029;-80
2022/09/05 11:46:44;;;;;;;0.20;0.20;;;30.90;61.60;;;;;;5004879;28;20497;-79
2022/09/05 11:49:41;;;;;;;0.10;0.10;;;31.00;62.10;;;;;;5033770;28;20039;-77
2022/09/05 11:52:42;;;;;;;0.00;0.00;;;30.60;62.40;;;;;;5031702;28;20036;-76
2022/09/05 11:55:35;;;;;;;0.57;0.43;;;30.20;63.20;;;;;;5015433;28;20154;-76
2022/09/05 11:58:16;;;;;;;0.00;0.00;;;30.60;63.10;;;;;;5023810;28;20404;-78
2022/09/05 12:00:55;;;;;;;0.00;0.00;;;30.60;63.20;;;;;;5024264;28;20060;-77
2022/09/05 12:03:48;;;;;;;0.10;0.10;;;30.50;62.90;;;;;;5034409;28;20040;-76
2022/09/05 12:06:44;;;;;;;0.35;0.25;;;30.80;62.00;;;;;;5006115;28;20021;-76
2022/09/05 12:09:23;;;;;;;0.00;0.00;;;30.40;61.20;;;;;;5023203;28;20037;-77
2022/09/05 12:12:08;;;;;;;0.17;0.17;;;30.30;64.50;;;;;;5023969;28;20431;-78
2022/09/05 12:14:42;;;;;;;0.00;0.00;;;30.60;62.60;;;;;;5007614;28;20448;-78
2022/09/05 12:17:21;;;;;;;0.00;0.00;;;30.80;61.40;;;;;;5040912;28;20036;-76
2022/09/05 12:20:00;;;;;;;0.00;0.00;;;30.50;60.30;;;;;;5016978;28;20112;-78
2022/09/05 12:22:35;;;;;;;1.35;0.13;;;30.40;62.00;;;;;;4994365;28;20029;-78
2022/09/05 12:25:17;;;;;;;0.50;0.50;;;30.30;60.40;;;;;;5019024;28;20095;-78
2022/09/05 12:27:47;;;;;;;0.10;0.10;;;30.10;61.30;;;;;;5022381;28;20037;-78
2022/09/05 12:30:22;;;;;;;0.80;0.10;;;30.50;62.40;;;;;;5031146;28;20033;-79
2022/09/05 12:32:52;;;;;;;0.00;0.00;;;30.50;55.60;;;;;;5037228;28;20393;-80
2022/09/05 12:36:02;;;;;;;0.30;0.30;;;30.30;51.00;;;;;;5022600;28;20355;-77
2022/09/05 12:38:37;;;;;;;0.60;0.30;;;30.10;50.20;;;;;;5025903;28;20174;-78
2022/09/05 12:41:20;;;;;;;0.10;0.10;;;30.20;50.00;;;;;;5037555;28;20037;-77
2022/09/05 12:44:00;;;;;;;0.00;0.00;;;29.90;49.90;;;;;;5036402;28;20033;-77
2022/09/05 12:46:32;;;;;;;0.10;0.10;;;30.00;50.10;;;;;;5001303;28;20145;-78
2022/09/05 12:49:05;;;;;;;0.55;0.40;;;30.10;49.40;;;;;;5016440;28;20125;-77
2022/09/05 12:51:36;;;;;;;0.00;0.00;;;29.70;47.80;;;;;;5020079;28;20120;-76
2022/09/05 12:54:09;;;;;;;0.45;0.45;;;29.20;50.10;;;;;;5019987;28;20041;-80
2022/09/05 12:56:54;;;;;;;0.00;0.00;;;28.80;58.30;;;;;;5016501;28;20029;-78
2022/09/05 12:59:23;;;;;;;0.82;0.80;;;29.30;59.00;;;;;;5034307;28;20048;-78
2022/09/05 13:02:02;;;;;;;5.22;2.22;;;29.40;60.30;;;;;;4996628;28;20170;-79
2022/09/05 13:04:40;;;;;;;0.00;0.00;;;29.40;61.30;;;;;;5038701;28;20579;-79
2022/09/05 13:07:15;;;;;;;0.03;0.03;;;29.60;61.50;;;;;;5018750;28;20036;-78
2022/09/05 13:09:42;;;;;;;0.00;0.00;;;29.60;61.60;;;;;;5015924;28;20030;-79
2022/09/05 13:12:11;;;;;;;1.65;0.22;;;29.40;62.00;;;;;;5020746;28;20048;-78
2022/09/05 13:15:06;;;;;;;0.00;0.00;;;28.90;63.10;;;;;;5022291;28;20489;-77
2022/09/05 13:17:43;;;;;;;1.88;1.35;;;28.50;64.70;;;;;;5023965;28;20029;-77
2022/09/05 13:20:35;;;;;;;0.00;0.00;;;28.30;65.80;;;;;;5037920;28;20033;-78
2022/09/05 13:23:03;;;;;;;;;;;28.50;64.40;;;;;;5023866;28;20079;-77
2022/09/05 13:25:31;;;;;;;0.40;0.40;;;28.30;64.80;;;;;;5022166;28;19909;-78
2022/09/05 13:28:05;;;;;;;0.35;0.35;;;28.10;66.40;;;;;;5022840;28;20392;-77
2022/09/05 13:30:36;;;;;;;0.40;0.40;;;28.30;65.60;;;;;;5024483;28;20052;-77
2022/09/05 13:33:25;;;;;;;0.93;0.60;;;28.40;64.90;;;;;;5044038;28;20086;-77
2022/09/05 13:36:04;;;;;;;0.00;0.00;;;28.10;65.90;;;;;;5029660;28;20037;-78
2022/09/05 13:38:50;;;;;;;0.20;0.20;;;28.20;65.40;;;;;;5010450;28;20033;-77
2022/09/05 13:41:26;;;;;;;0.20;0.20;;;28.40;66.00;;;;;;5039075;28;20029;-77
2022/09/05 13:43:54;;;;;;;0.00;0.00;;;28.50;65.50;;;;;;5015753;28;20378;-76
2022/09/05 13:46:28;;;;;;;0.00;0.00;;;28.40;65.90;;;;;;5025324;28;20032;-77
2022/09/05 13:49:09;;;;;;;0.10;0.10;;;28.50;64.90;;;;;;5041486;28;20529;-76
2022/09/05 13:51:42;;;;;;;0.00;0.00;;;28.70;65.40;;;;;;5032075;28;20457;-77
2022/09/05 13:54:27;;;;;;;0.20;0.20;;;28.70;66.50;;;;;;5025262;28;20041;-77
2022/09/05 13:57:19;;;;;;;0.03;0.00;;;28.90;65.90;;;;;;5015894;28;20032;-78
2022/09/05 14:00:19;;;;;;;0.30;0.30;;;28.80;66.00;;;;;;5036018;28;20037;-78
2022/09/05 14:03:19;;;;;;;0.00;0.00;;;28.50;67.00;;;;;;5009666;28;20037;-79
2022/09/05 14:05:51;;;;;;;0.65;0.10;;;28.60;67.30;;;;;;5025883;28;20065;-77
2022/09/05 14:08:20;;;;;;;0.15;0.15;;;28.30;67.40;;;;;;5034839;28;20638;-77
2022/09/05 14:11:14;;;;;;;0.00;0.00;;;28.30;67.70;;;;;;5036790;28;20405;-78